• Join FlightAware (Why Join?)
  • Login
  • US Flag 
10:08PM EDT


 

Airport Tracker/Info


-or-


 

Live Flight TrackerFlight Track Log ✈ TAM3082 ✈ 27-Jun-2013 ✈ SBUL / UDI - SBSP / CGH

Flight Track Log - Related Links

Times and Time Zones

All times are in EDT time to prevent confusion due to time zone crossing. See the TAM3082 flight status page for this flight to view local times or setup timezone preferences in your user account.

Time Position Orientation Groundspeed Altitude Reporting Facility
EDT Latitude Longitude Course Direction KTS MPH feet Rate Location/Type
12:26PM -21.1248 -47.4967 163° South  Level Estimated
12:27PM -21.2110 -47.4682 163° South  Level Estimated
12:28PM -21.2971 -47.4397 163° South  Level Estimated
12:29PM -21.3833 -47.4112 163° South  Level Estimated
12:30PM -21.4694 -47.3826 163° South  Level Estimated
12:31PM -21.5556 -47.3540 163° South  Level Estimated
12:32PM -21.6417 -47.3254 163° South  Level Estimated
12:33PM -21.7279 -47.2967 163° South  Level Estimated
12:34PM -21.8140 -47.2680 163° South  Level Estimated
12:35PM -21.9001 -47.2393 163° South  Level Estimated
12:36PM -21.9863 -47.2105 163° South  Level Estimated
12:37PM -22.0724 -47.1817 163° South  Level Estimated
12:38PM -22.1585 -47.1529 163° South  Level Estimated
12:39PM -22.2446 -47.1240 163° South  Level Estimated
12:40PM -22.3307 -47.0951 163° South  Level Estimated
12:41PM -22.4168 -47.0662 163° South  Level Estimated
12:42PM -22.5029 -47.0372 163° South  Level Estimated
12:43PM -22.5890 -47.0082 163° South  Level Estimated
12:44PM -22.6751 -46.9791 163° South  Level Estimated
12:45PM -22.7611 -46.9500 163° South  Level Estimated
12:46PM -22.8472 -46.9209 163° South  Level Estimated
12:47PM -22.9333 -46.8918 163° South  Level Estimated
12:48PM -23.0193 -46.8626 163° South  Level Estimated
12:49PM -23.1054 -46.8333 163° South  Level Estimated
12:50PM -23.1915 -46.8041 163° South  Level Estimated
12:51PM -23.2775 -46.7747 163° South  Level Estimated
12:52PM -23.3635 -46.7454 163° South  Level Estimated
12:53PM -23.4496 -46.7160 163° South  Level Estimated
12:54PM -23.5356 -46.6866 163° South  Level Estimated
12:55PM -23.6216 -46.6571 163° South  Level Estimated
12:56PM -23.6267 -46.6554 163° South  Level Estimated
12:57PM -23.6267 -46.6554 114° Southeast  Level Estimated
12:58PM -23.6267 -46.6554 114° Southeast  Level Estimated
12:59PM -23.6267 -46.6554 114° Southeast  Level Estimated
01:00PM -23.6267 -46.6554 114° Southeast  Level Estimated
01:01PM -23.6267 -46.6554 114° Southeast  Level Estimated
01:02PM -23.6267 -46.6554 114° Southeast  Level Estimated
01:03PM -23.6267 -46.6554 114° Southeast  Level Estimated
01:04PM -23.6267 -46.6554 114° Southeast  Level Estimated
01:05PM -23.6267 -46.6554 114° Southeast  Level Estimated
01:06PM -23.6267 -46.6554 114° Southeast  Level Estimated
01:07PM -23.6267 -46.6554 114° Southeast  Level Estimated
01:08PM -23.6267 -46.6554 114° Southeast  Level Estimated
01:09PM -23.6267 -46.6554 114° Southeast  Level Estimated
01:10PM -23.6267 -46.6554 114° Southeast  Level Estimated
01:11PM -23.6267 -46.6554 114° Southeast  Level Estimated